Terminal Aerodrome Forecast
Issued by NWS Des Moines, IA

Home | Current Version | Previous Version | Text Only | Print | Product List | Glossary On
Versions: 1 2 3 4 5 6 7 8 9 10 11 12 13 14 15 16 17 18 19 20 21 22 23 24 25 26 27 28 29 30 31 32
723
FTUS43 KDMX 250117 AAA
TAFDSM
TAF AMD
KDSM 250117Z 2501/2524 03012KT 3SM BR OVC006
     FM250800 04011G20KT 3SM -RA OVC007
     FM251800 02010G19KT 4SM -RA OVC003
     FM252100 01010KT 5SM -RA OVC003=

USA.gov is the U.S. government's official web portal to all federal, state and local government web resources and services.